createdAt,value
2023-02-08T00:01:23.360Z,67.94
2023-02-08T00:03:52.498Z,67.95
2023-02-08T00:06:19.549Z,67.60
2023-02-08T00:08:47.054Z,67.80
2023-02-08T00:11:17.168Z,67.95
2023-02-08T00:13:50.290Z,67.27
2023-02-08T00:16:21.300Z,67.19
2023-02-08T00:18:49.922Z,67.13
2023-02-08T00:21:18.767Z,67.14
2023-02-08T00:23:46.673Z,67.59
2023-02-08T00:26:14.751Z,67.43
2023-02-08T00:28:43.574Z,67.75
2023-02-08T00:31:19.917Z,67.41
2023-02-08T00:33:47.095Z,67.15
2023-02-08T00:36:14.175Z,67.49
2023-02-08T00:38:43.002Z,67.27
2023-02-08T00:41:10.252Z,67.32
2023-02-08T00:43:37.484Z,67.49
2023-02-08T00:46:05.066Z,67.11
2023-02-08T00:48:33.196Z,67.39
2023-02-08T00:51:11.908Z,67.66
2023-02-08T00:53:40.735Z,67.65
2023-02-08T00:56:09.189Z,68.00
2023-02-08T00:58:36.871Z,67.54
2023-02-08T01:01:13.580Z,68.00
2023-02-08T01:03:43.284Z,68.31
2023-02-08T01:06:14.195Z,67.91
2023-02-08T01:08:41.146Z,68.35
2023-02-08T01:11:12.027Z,68.39
2023-02-08T01:13:39.226Z,68.09
2023-02-08T01:16:13.196Z,68.29
2023-02-08T01:18:41.862Z,68.80
2023-02-08T01:21:11.859Z,68.72
2023-02-08T01:23:40.017Z,68.67
2023-02-08T01:26:08.348Z,68.88
2023-02-08T01:28:35.991Z,69.21
2023-02-08T01:31:16.362Z,69.16
2023-02-08T01:33:43.404Z,69.18
2023-02-08T01:36:10.851Z,69.50
2023-02-08T01:38:38.871Z,70.30
2023-02-08T01:41:08.201Z,70.27
2023-02-08T01:44:02.069Z,69.85
2023-02-08T01:46:32.830Z,69.65
2023-02-08T01:49:04.802Z,69.87
2023-02-08T01:51:37.445Z,70.18
2023-02-08T01:54:09.836Z,70.25
2023-02-08T01:56:42.530Z,70.26
2023-02-08T01:59:17.332Z,70.29
2023-02-08T02:01:46.361Z,70.90
2023-02-08T02:04:13.605Z,70.66
2023-02-08T02:06:45.877Z,70.38
2023-02-08T02:09:31.781Z,70.50
2023-02-08T02:12:01.208Z,70.37
2023-02-08T02:14:29.009Z,70.60
2023-02-08T02:16:55.961Z,69.92
2023-02-08T02:19:22.924Z,70.25
2023-02-08T02:22:27.517Z,70.86
2023-02-08T02:25:36.528Z,71.26
2023-02-08T02:28:03.330Z,71.52
2023-02-08T02:30:42.762Z,71.85
2023-02-08T02:33:25.097Z,71.61
2023-02-08T02:35:57.888Z,72.28
2023-02-08T02:38:34.053Z,72.70
2023-02-08T02:41:43.245Z,73.58
2023-02-08T02:44:22.218Z,73.64
2023-02-08T02:46:58.100Z,72.95
2023-02-08T02:49:39.366Z,72.92
2023-02-08T02:52:20.476Z,73.12
2023-02-08T02:54:52.380Z,72.59
2023-02-08T02:57:24.650Z,72.17
2023-02-08T02:59:51.962Z,72.60
2023-02-08T03:02:19.028Z,73.26
2023-02-08T03:04:50.406Z,74.17
2023-02-08T03:07:20.298Z,74.26
2023-02-08T03:10:08.584Z,74.61
2023-02-08T03:13:10.005Z,74.60
2023-02-08T03:15:55.435Z,74.21
2023-02-08T03:18:34.234Z,74.29
2023-02-08T03:21:12.996Z,74.47
2023-02-08T03:23:48.839Z,74.76
2023-02-08T03:26:15.826Z,74.98
2023-02-08T03:29:02.436Z,75.52
2023-02-08T03:31:44.222Z,76.06
2023-02-08T03:34:34.109Z,76.44
2023-02-08T03:37:17.837Z,76.90
2023-02-08T03:39:48.696Z,76.66
2023-02-08T03:42:21.848Z,77.10
2023-02-08T03:45:00.561Z,76.94
2023-02-08T03:47:32.771Z,76.99
2023-02-08T03:50:07.002Z,77.22
2023-02-08T03:52:36.222Z,77.23
2023-02-08T03:55:12.123Z,77.46
2023-02-08T03:57:57.738Z,77.11
2023-02-08T04:00:25.508Z,76.68
2023-02-08T04:02:57.322Z,76.17
2023-02-08T04:05:24.939Z,75.94
2023-02-08T04:07:52.789Z,76.30
2023-02-08T04:10:20.413Z,76.24
2023-02-08T04:12:49.191Z,76.52
2023-02-08T04:15:16.986Z,76.40
2023-02-08T04:17:44.215Z,76.86
2023-02-08T04:20:12.202Z,76.32
2023-02-08T04:22:39.526Z,76.85
2023-02-08T04:25:06.525Z,76.07
2023-02-08T04:27:33.560Z,75.63
2023-02-08T04:30:01.076Z,75.95
2023-02-08T04:32:28.200Z,75.14
2023-02-08T04:34:55.275Z,75.05
2023-02-08T04:37:22.280Z,75.20
2023-02-08T04:39:49.687Z,75.55
2023-02-08T04:42:16.799Z,75.83
2023-02-08T04:44:43.710Z,76.47
2023-02-08T04:47:10.851Z,76.64
2023-02-08T04:49:37.797Z,76.89
2023-02-08T04:52:05.196Z,77.18
2023-02-08T04:54:32.412Z,77.50
2023-02-08T04:56:59.349Z,77.24
2023-02-08T04:59:26.524Z,77.47
2023-02-08T05:01:53.481Z,76.21
2023-02-08T05:04:20.524Z,76.19
2023-02-08T05:06:48.611Z,75.95
2023-02-08T05:09:15.507Z,76.19
2023-02-08T05:11:42.771Z,75.83
2023-02-08T05:14:10.328Z,75.64
2023-02-08T05:16:37.335Z,76.15
2023-02-08T05:19:04.198Z,76.29
2023-02-08T05:21:31.244Z,76.49
2023-02-08T05:23:58.159Z,76.65
2023-02-08T05:26:25.262Z,76.61
2023-02-08T05:28:52.363Z,76.81
2023-02-08T05:31:25.385Z,77.19
2023-02-08T05:33:53.226Z,77.12
2023-02-08T05:36:23.288Z,76.95
2023-02-08T05:38:50.623Z,77.13
2023-02-08T05:41:17.857Z,77.41
2023-02-08T05:43:46.259Z,77.30
2023-02-08T05:46:13.722Z,77.51
2023-02-08T05:48:40.953Z,77.44
2023-02-08T05:51:08.232Z,78.06
2023-02-08T05:53:35.567Z,77.55
2023-02-08T05:56:02.838Z,77.78
2023-02-08T05:58:30.402Z,77.87
2023-02-08T06:00:57.412Z,78.10
2023-02-08T06:03:24.426Z,78.52
2023-02-08T06:05:51.637Z,78.24
2023-02-08T06:08:18.551Z,78.37
2023-02-08T06:10:49.346Z,78.52
2023-02-08T06:13:16.308Z,78.79
2023-02-08T06:15:43.513Z,79.08
2023-02-08T06:18:11.069Z,79.21
2023-02-08T06:20:38.759Z,78.56
2023-02-08T06:23:06.028Z,78.06
2023-02-08T06:25:33.266Z,77.95
2023-02-08T06:28:00.223Z,77.67
2023-02-08T06:30:27.479Z,77.12
2023-02-08T06:32:54.875Z,76.44
2023-02-08T06:35:21.929Z,75.50
2023-02-08T06:37:48.804Z,74.90
2023-02-08T06:40:16.026Z,74.37
2023-02-08T06:42:43.194Z,72.71
2023-02-08T06:45:13.359Z,72.41
2023-02-08T06:47:40.855Z,72.70
2023-02-08T06:50:08.209Z,72.56
2023-02-08T06:52:35.725Z,71.83
2023-02-08T06:55:02.795Z,71.34
2023-02-08T06:57:29.980Z,71.28
2023-02-08T06:59:56.919Z,71.41
2023-02-08T07:02:24.147Z,71.06
2023-02-08T07:04:51.357Z,71.22
2023-02-08T07:07:19.423Z,71.96
2023-02-08T07:09:46.667Z,72.78
2023-02-08T07:12:13.844Z,72.89
2023-02-08T07:14:42.740Z,72.44
2023-02-08T07:17:10.967Z,72.16
2023-02-08T07:19:38.594Z,72.26
2023-02-08T07:22:08.450Z,72.23
2023-02-08T07:24:40.870Z,72.09
2023-02-08T07:27:09.688Z,71.32
2023-02-08T07:29:37.040Z,71.04
2023-02-08T07:32:05.541Z,71.39
2023-02-08T07:34:37.805Z,70.66
2023-02-08T07:37:05.349Z,70.05
2023-02-08T07:39:32.406Z,70.70
2023-02-08T07:41:59.581Z,69.99
2023-02-08T07:44:30.520Z,69.13
2023-02-08T07:46:57.632Z,68.82
2023-02-08T07:49:24.550Z,68.80
2023-02-08T07:51:51.580Z,69.00
2023-02-08T07:54:18.513Z,68.79
2023-02-08T07:56:45.622Z,68.27
2023-02-08T07:59:12.570Z,68.78
2023-02-08T08:01:39.624Z,68.89
2023-02-08T08:04:06.606Z,69.07
2023-02-08T08:06:33.929Z,69.22
2023-02-08T08:09:00.959Z,68.25
2023-02-08T08:11:28.250Z,67.37
2023-02-08T08:13:55.188Z,67.01
2023-02-08T08:16:22.772Z,66.71
2023-02-08T08:18:50.805Z,66.06
2023-02-08T08:21:17.740Z,66.66
2023-02-08T08:23:45.239Z,66.08
2023-02-08T08:26:18.088Z,66.11
2023-02-08T08:28:47.087Z,65.59
2023-02-08T08:31:17.050Z,65.59
2023-02-08T08:33:44.454Z,65.13
2023-02-08T08:36:11.718Z,65.28
2023-02-08T08:38:41.892Z,64.81
2023-02-08T08:41:10.918Z,65.14
2023-02-08T08:43:38.679Z,64.95
2023-02-08T08:46:06.899Z,64.47
2023-02-08T08:48:38.903Z,64.50
2023-02-08T08:51:06.941Z,64.80
2023-02-08T08:53:35.430Z,64.30
2023-02-08T08:56:03.080Z,64.58
2023-02-08T08:58:30.072Z,65.07
2023-02-08T09:01:01.157Z,64.38
2023-02-08T09:03:28.847Z,64.24
2023-02-08T09:05:56.544Z,63.35
2023-02-08T09:08:23.729Z,63.01
2023-02-08T09:10:50.913Z,63.15
2023-02-08T09:13:20.027Z,62.22
2023-02-08T09:15:48.703Z,60.47
2023-02-08T09:18:15.877Z,59.98
2023-02-08T09:20:43.648Z,60.54
2023-02-08T09:23:11.672Z,60.46
2023-02-08T09:25:38.632Z,60.91
2023-02-08T09:28:05.697Z,61.28
2023-02-08T09:30:33.525Z,61.43
2023-02-08T09:33:00.925Z,61.29
2023-02-08T09:35:27.832Z,61.01
2023-02-08T09:37:58.355Z,60.20
2023-02-08T09:40:38.100Z,60.00
2023-02-08T09:43:13.092Z,60.13
2023-02-08T09:45:59.814Z,59.93
2023-02-08T09:48:39.127Z,59.83
2023-02-08T09:51:22.697Z,58.63
2023-02-08T09:53:58.790Z,59.12
2023-02-08T09:56:36.347Z,59.81
2023-02-08T09:59:03.745Z,58.19
2023-02-08T10:01:34.315Z,59.22
2023-02-08T10:04:13.699Z,58.83
2023-02-08T10:06:41.364Z,58.46
2023-02-08T10:09:14.514Z,58.77
2023-02-08T10:11:58.405Z,58.36
2023-02-08T10:14:31.328Z,58.22
2023-02-08T10:17:11.317Z,57.59
2023-02-08T10:19:59.676Z,58.03
2023-02-08T10:22:54.669Z,58.30
2023-02-08T10:25:36.099Z,56.40
2023-02-08T10:28:06.219Z,57.36
2023-02-08T10:30:40.199Z,58.02
2023-02-08T10:33:17.741Z,58.17
2023-02-08T10:35:50.213Z,58.05
2023-02-08T10:38:44.139Z,56.97
2023-02-08T10:41:24.782Z,56.23
2023-02-08T10:44:13.857Z,55.03
2023-02-08T10:47:13.459Z,54.83
2023-02-08T10:50:09.616Z,55.92
2023-02-08T10:52:43.159Z,54.40
2023-02-08T10:55:20.147Z,54.43
2023-02-08T10:58:02.860Z,55.32
2023-02-08T11:00:39.568Z,55.62
2023-02-08T11:03:30.327Z,55.99
2023-02-08T11:06:00.411Z,56.90
2023-02-08T11:08:37.156Z,57.01
2023-02-08T11:11:10.583Z,56.75
2023-02-08T11:13:48.505Z,57.17
2023-02-08T11:16:27.003Z,57.53
2023-02-08T11:18:59.366Z,57.76
2023-02-08T11:21:35.604Z,58.45
2023-02-08T11:24:36.190Z,58.52
2023-02-08T11:27:22.935Z,58.13
2023-02-08T11:30:23.006Z,58.59
2023-02-08T11:33:20.728Z,58.37
2023-02-08T11:36:14.802Z,58.33
2023-02-08T11:38:44.289Z,58.40
2023-02-08T11:41:32.681Z,58.52
2023-02-08T11:44:09.264Z,58.45
2023-02-08T11:46:37.783Z,57.49
2023-02-08T11:49:04.927Z,57.97
2023-02-08T11:51:35.737Z,57.84
2023-02-08T11:54:03.877Z,58.16
2023-02-08T11:56:34.240Z,57.96
2023-02-08T11:59:22.650Z,58.37
2023-02-08T12:01:49.754Z,58.70
2023-02-08T12:04:18.069Z,58.59
2023-02-08T12:07:23.482Z,58.96
2023-02-08T12:10:12.633Z,58.75
2023-02-08T12:13:14.288Z,58.69
2023-02-08T12:15:57.872Z,58.57
2023-02-08T12:18:44.495Z,58.23
2023-02-08T12:21:15.453Z,58.34
2023-02-08T12:23:56.556Z,58.56
2023-02-08T12:26:46.212Z,57.66
2023-02-08T12:29:18.829Z,57.48
2023-02-08T12:31:58.399Z,57.24
2023-02-08T12:34:47.400Z,56.45
2023-02-08T12:37:48.533Z,55.98
2023-02-08T12:40:48.224Z,55.63
2023-02-08T12:43:24.123Z,55.82
2023-02-08T12:46:39.501Z,54.29
2023-02-08T12:49:27.977Z,53.72
2023-02-08T12:52:19.372Z,53.63
2023-02-08T12:54:56.447Z,53.67
2023-02-08T12:57:25.567Z,53.11
2023-02-08T13:00:17.906Z,53.26
2023-02-08T13:03:07.903Z,52.58
2023-02-08T13:05:41.684Z,52.99
2023-02-08T13:08:58.197Z,52.14
2023-02-08T13:11:40.118Z,52.18
2023-02-08T13:14:23.696Z,51.31
2023-02-08T13:16:55.885Z,50.60
2023-02-08T13:19:32.139Z,50.51
2023-02-08T13:22:00.865Z,50.35
2023-02-08T13:24:36.535Z,50.77
2023-02-08T13:27:08.203Z,50.19
2023-02-08T13:29:36.575Z,50.41
2023-02-08T13:32:14.589Z,50.44
2023-02-08T13:35:01.792Z,50.40
2023-02-08T13:37:34.266Z,51.20
2023-02-08T13:40:18.080Z,51.08
2023-02-08T13:42:52.677Z,51.27
2023-02-08T13:45:30.598Z,52.16
2023-02-08T13:48:00.756Z,53.36
2023-02-08T13:50:29.236Z,54.19
2023-02-08T13:52:56.423Z,54.25
2023-02-08T13:55:33.622Z,54.19
2023-02-08T13:58:02.844Z,53.95
2023-02-08T14:00:33.149Z,53.44
2023-02-08T14:03:15.279Z,53.45
2023-02-08T14:05:58.584Z,53.54
2023-02-08T14:08:35.259Z,53.09
2023-02-08T14:11:24.411Z,53.74
2023-02-08T14:14:01.002Z,54.19
2023-02-08T14:16:40.852Z,54.32
2023-02-08T14:19:18.204Z,53.78
2023-02-08T14:22:00.732Z,54.28
2023-02-08T14:24:34.250Z,54.82
2023-02-08T14:27:20.503Z,55.19
2023-02-08T14:29:56.419Z,56.13
2023-02-08T14:32:25.159Z,55.99
2023-02-08T14:35:18.312Z,56.28
2023-02-08T14:37:45.815Z,56.45
2023-02-08T14:40:22.920Z,56.55
2023-02-08T14:43:18.616Z,57.43
2023-02-08T14:45:46.990Z,56.37
2023-02-08T14:48:23.652Z,56.72
2023-02-08T14:51:18.585Z,57.30
2023-02-08T14:53:54.625Z,57.86
2023-02-08T14:56:23.453Z,58.05
2023-02-08T14:59:05.666Z,58.94
2023-02-08T15:01:46.947Z,58.63
2023-02-08T15:04:18.533Z,59.30
2023-02-08T15:06:53.449Z,59.08
2023-02-08T15:09:29.903Z,59.31
2023-02-08T15:12:20.088Z,59.16
2023-02-08T15:14:47.426Z,59.15
2023-02-08T15:17:41.084Z,59.48
2023-02-08T15:20:24.518Z,59.97
2023-02-08T15:23:21.497Z,59.39
2023-02-08T15:26:02.567Z,58.58
2023-02-08T15:28:33.765Z,58.09
2023-02-08T15:31:12.103Z,57.98
2023-02-08T15:33:42.427Z,57.22
2023-02-08T15:36:22.980Z,57.13
2023-02-08T15:38:50.097Z,57.48
2023-02-08T15:41:38.241Z,57.63
2023-02-08T15:44:21.234Z,57.19
2023-02-08T15:49:28.650Z,57.04
2023-02-08T15:51:59.612Z,56.16
2023-02-08T15:54:26.793Z,56.89
2023-02-08T15:56:59.396Z,57.01
2023-02-08T15:59:33.902Z,57.27
2023-02-08T16:02:27.126Z,57.00
2023-02-08T16:04:54.987Z,57.01
2023-02-08T16:07:37.397Z,57.12
2023-02-08T16:10:08.097Z,57.20
2023-02-08T16:12:37.198Z,57.23
2023-02-08T16:15:08.507Z,57.00
2023-02-08T16:17:43.311Z,57.35
2023-02-08T16:20:33.379Z,58.16
2023-02-08T16:23:03.841Z,58.38
2023-02-08T16:25:46.273Z,58.44
2023-02-08T16:28:33.829Z,58.78
2023-02-08T16:31:04.743Z,58.55
2023-02-08T16:33:33.118Z,58.80
2023-02-08T16:36:03.470Z,58.94
2023-02-08T16:38:34.224Z,59.15
2023-02-08T16:41:12.464Z,59.23
2023-02-08T16:43:44.687Z,59.38
2023-02-08T16:46:11.620Z,58.89
2023-02-08T16:48:41.921Z,59.56
2023-02-08T16:51:31.376Z,60.00
2023-02-08T16:54:08.409Z,59.91
2023-02-08T16:56:36.501Z,59.96
2023-02-08T16:59:03.843Z,60.48
2023-02-08T17:01:31.927Z,60.46
2023-02-08T17:03:59.362Z,60.68
2023-02-08T17:06:35.160Z,61.06
2023-02-08T17:09:04.457Z,60.68
2023-02-08T17:11:32.029Z,60.88
2023-02-08T17:13:59.211Z,60.92
2023-02-08T17:16:29.032Z,61.35
2023-02-08T17:18:59.207Z,61.09
2023-02-08T17:21:28.040Z,61.67
2023-02-08T17:23:55.870Z,61.23
2023-02-08T17:26:27.479Z,61.33
2023-02-08T17:28:56.245Z,61.69
2023-02-08T17:31:25.344Z,61.88
2023-02-08T17:33:52.768Z,61.89
2023-02-08T17:36:19.713Z,62.39
2023-02-08T17:38:48.171Z,62.28
2023-02-08T17:41:18.226Z,62.94
2023-02-08T17:43:46.110Z,62.79
2023-02-08T17:46:17.384Z,62.83
2023-02-08T17:48:46.140Z,62.79
2023-02-08T17:51:23.462Z,63.06
2023-02-08T17:53:51.138Z,63.59
2023-02-08T17:56:27.050Z,63.19
2023-02-08T17:58:55.165Z,63.60
2023-02-08T18:01:27.172Z,63.32
2023-02-08T18:03:54.990Z,63.63
2023-02-08T18:06:24.994Z,63.32
2023-02-08T18:08:54.058Z,63.72
2023-02-08T18:11:23.487Z,63.81
2023-02-08T18:13:52.692Z,64.48
2023-02-08T18:16:25.302Z,64.37
2023-02-08T18:18:59.198Z,64.67
2023-02-08T18:21:26.535Z,65.13
2023-02-08T18:23:55.422Z,64.89
2023-02-08T18:26:24.308Z,64.70
2023-02-08T18:28:52.671Z,64.66
2023-02-08T18:31:21.241Z,64.93
2023-02-08T18:33:49.891Z,65.16
2023-02-08T18:36:17.914Z,65.38
2023-02-08T18:38:47.189Z,65.27
2023-02-08T18:41:16.274Z,65.21
2023-02-08T18:43:43.267Z,65.60
2023-02-08T18:46:13.573Z,65.75
2023-02-08T18:48:41.227Z,65.94
2023-02-08T18:51:09.847Z,66.03
2023-02-08T18:53:40.241Z,66.02
2023-02-08T18:56:09.270Z,66.00
2023-02-08T18:58:36.714Z,66.19
2023-02-08T19:01:18.370Z,66.43
2023-02-08T19:03:49.240Z,66.55
2023-02-08T19:06:21.219Z,66.63
2023-02-08T19:08:51.731Z,66.78
2023-02-08T19:11:25.239Z,66.92
2023-02-08T19:13:54.901Z,67.10
2023-02-08T19:16:22.868Z,67.16
2023-02-08T19:18:50.253Z,66.79
2023-02-08T19:21:18.042Z,66.62
2023-02-08T19:23:53.368Z,66.14
2023-02-08T19:26:47.035Z,66.09
2023-02-08T19:29:17.566Z,65.96
2023-02-08T19:31:45.114Z,66.11
2023-02-08T19:34:12.612Z,66.10
2023-02-08T19:36:46.578Z,65.84
2023-02-08T19:39:17.175Z,66.00
2023-02-08T19:41:45.553Z,66.51
2023-02-08T19:44:15.525Z,66.73
2023-02-08T19:46:46.474Z,67.04
2023-02-08T19:49:14.030Z,66.88
2023-02-08T19:51:41.255Z,66.71
2023-02-08T19:54:13.231Z,67.69
2023-02-08T19:56:40.902Z,67.75
2023-02-08T19:59:15.274Z,67.97
2023-02-08T20:01:42.672Z,67.87
2023-02-08T20:04:09.660Z,68.33
2023-02-08T20:06:39.056Z,68.40
2023-02-08T20:09:08.020Z,68.62
2023-02-08T20:11:54.748Z,68.24
2023-02-08T20:14:23.695Z,68.81
2023-02-08T20:16:50.612Z,69.00
2023-02-08T20:19:18.021Z,69.17
2023-02-08T20:21:45.516Z,69.33
2023-02-08T20:24:13.121Z,69.44
2023-02-08T20:26:43.247Z,69.16
2023-02-08T20:29:11.236Z,69.45
2023-02-08T20:31:42.592Z,70.01
2023-02-08T20:34:13.481Z,70.22
2023-02-08T20:36:49.661Z,70.40
2023-02-08T20:39:20.802Z,70.47
2023-02-08T20:41:48.146Z,70.38
2023-02-08T20:44:17.582Z,69.78
2023-02-08T20:46:45.187Z,70.07
2023-02-08T20:49:15.234Z,69.98
2023-02-08T20:51:43.512Z,70.13
2023-02-08T20:54:11.130Z,70.05
2023-02-08T20:56:38.922Z,70.13
2023-02-08T20:59:08.828Z,70.47
2023-02-08T21:01:37.344Z,71.14
2023-02-08T21:04:05.054Z,71.26
2023-02-08T21:06:35.525Z,71.19
2023-02-08T21:09:07.433Z,71.09
2023-02-08T21:11:35.346Z,70.91
2023-02-08T21:14:02.929Z,71.01
2023-02-08T21:16:30.892Z,71.28
2023-02-08T21:18:59.216Z,71.18
2023-02-08T21:21:26.546Z,71.25
2023-02-08T21:23:53.765Z,71.33
2023-02-08T21:26:21.012Z,71.49
2023-02-08T21:28:53.278Z,71.76
2023-02-08T21:31:22.275Z,71.93
2023-02-08T21:33:49.856Z,71.66
2023-02-08T21:36:21.243Z,71.20
2023-02-08T21:38:48.910Z,71.45
2023-02-08T21:41:21.784Z,71.18
2023-02-08T21:43:50.167Z,71.42
2023-02-08T21:46:17.921Z,71.89
2023-02-08T21:49:04.631Z,72.14
2023-02-08T21:51:50.544Z,72.18
2023-02-08T21:54:39.002Z,72.24
2023-02-08T21:57:10.890Z,72.22
2023-02-08T21:59:38.502Z,72.57
2023-02-08T22:02:08.866Z,72.47
2023-02-08T22:04:37.145Z,72.52
2023-02-08T22:07:04.791Z,72.64
2023-02-08T22:09:31.799Z,72.40
2023-02-08T22:11:59.064Z,72.80
2023-02-08T22:14:26.252Z,72.59
2023-02-08T22:16:53.312Z,72.50
2023-02-08T22:19:20.249Z,72.70
2023-02-08T22:21:47.496Z,72.94
2023-02-08T22:24:14.395Z,73.26
2023-02-08T22:26:44.372Z,73.09
2023-02-08T22:29:11.946Z,73.06
2023-02-08T22:31:39.081Z,73.02
2023-02-08T22:34:06.038Z,73.29
2023-02-08T22:36:33.289Z,73.59
2023-02-08T22:39:00.148Z,73.50
2023-02-08T22:41:27.344Z,73.70
2023-02-08T22:43:54.475Z,73.64
2023-02-08T22:46:21.576Z,73.44
2023-02-08T22:48:48.489Z,73.41
2023-02-08T22:51:17.282Z,73.37
2023-02-08T22:53:44.961Z,73.26
2023-02-08T22:56:15.106Z,72.87
2023-02-08T22:58:42.225Z,72.42
2023-02-08T23:01:15.947Z,72.49
2023-02-08T23:03:43.785Z,72.84
2023-02-08T23:06:14.431Z,72.79
2023-02-08T23:08:44.754Z,72.34
2023-02-08T23:11:13.673Z,71.86
2023-02-08T23:13:41.018Z,72.13
2023-02-08T23:16:12.607Z,72.21
2023-02-08T23:18:40.303Z,72.38
2023-02-08T23:21:13.132Z,72.35
2023-02-08T23:23:40.815Z,72.54
2023-02-08T23:26:09.942Z,72.55
2023-02-08T23:28:37.422Z,72.65
2023-02-08T23:31:08.520Z,72.74
2023-02-08T23:33:37.996Z,72.70
2023-02-08T23:36:16.209Z,72.93
2023-02-08T23:38:43.596Z,73.28
2023-02-08T23:41:17.140Z,73.26
2023-02-08T23:43:47.487Z,73.36
2023-02-08T23:46:18.622Z,73.48
2023-02-08T23:51:32.564Z,73.54
2023-02-08T23:53:59.698Z,73.61
2023-02-08T23:56:29.486Z,73.79
2023-02-08T23:58:58.773Z,73.35
